Time;durP1;ratioP1;P1;durP2;ratioP2;P2;SDS_P1;SDS_P2;PMS_P1;PMS_P2;Temp;Humidity;BMP_temperature;BMP_pressure;BME280_temperature;BME280_humidity;BME280_pressure;Samples;Min_cycle;Max_cycle;Signal;HPM_P1;HPM_P2
2022/05/26 00:00:05;;;;;;;1.27;0.28;;;18.60;71.50;;;;;;6234828;28;20050;-83
2022/05/26 00:03:09;;;;;;;1.75;0.25;;;18.60;71.50;;;;;;6232892;28;20069;-86
2022/05/26 00:06:12;;;;;;;5.10;2.50;;;18.60;71.40;;;;;;6233678;28;20495;-83
2022/05/26 00:09:14;;;;;;;2.13;0.20;;;18.60;71.40;;;;;;6231890;28;20069;-86
2022/05/26 00:12:16;;;;;;;3.25;0.25;;;18.60;71.50;;;;;;6232452;28;20390;-84
2022/05/26 00:15:18;;;;;;;4.45;0.52;;;18.70;71.40;;;;;;6234318;28;20053;-86
2022/05/26 00:18:21;;;;;;;0.70;0.20;;;18.60;71.20;;;;;;6236723;28;20050;-86
2022/05/26 00:21:23;;;;;;;0.30;0.10;;;18.60;71.50;;;;;;6237584;28;20102;-84
2022/05/26 00:24:25;;;;;;;0.68;0.15;;;18.60;71.70;;;;;;6234826;28;20497;-83
2022/05/26 00:27:27;;;;;;;0.20;0.20;;;18.50;71.80;;;;;;6233033;28;20057;-86
2022/05/26 00:30:28;;;;;;;1.50;0.10;;;18.50;72.10;;;;;;6234133;28;20049;-85
2022/05/26 00:33:32;;;;;;;0.77;0.28;;;18.40;72.00;;;;;;6235105;28;20145;-85
2022/05/26 00:36:41;;;;;;;2.15;0.38;;;18.40;72.10;;;;;;6224724;28;20050;-86
2022/05/26 00:39:43;;;;;;;1.65;0.32;;;18.40;72.00;;;;;;6230982;28;20053;-86
2022/05/26 00:42:44;;;;;;;2.80;0.30;;;18.40;71.90;;;;;;6221198;28;20529;-85
2022/05/26 00:45:55;;;;;;;1.55;0.85;;;18.50;71.70;;;;;;6212536;28;20112;-87
2022/05/26 00:49:01;;;;;;;2.88;0.40;;;18.60;71.60;;;;;;6222889;28;20060;-86
2022/05/26 00:52:04;;;;;;;0.70;0.20;;;18.60;71.30;;;;;;6229314;28;20053;-85
2022/05/26 00:55:09;;;;;;;1.55;0.30;;;18.60;71.10;;;;;;6231848;28;20045;-86
2022/05/26 00:58:18;;;;;;;1.88;0.30;;;18.60;70.80;;;;;;6230443;28;20077;-86
2022/05/26 01:01:20;;;;;;;0.43;0.20;;;18.60;70.60;;;;;;6230529;28;20513;-85
2022/05/26 01:04:27;;;;;;;0.40;0.20;;;18.70;70.70;;;;;;6230721;28;20069;-86
2022/05/26 01:07:33;;;;;;;1.13;0.20;;;18.60;70.50;;;;;;6230618;28;20062;-86
2022/05/26 01:10:35;;;;;;;0.35;0.20;;;18.60;70.20;;;;;;6230499;28;20050;-87
2022/05/26 01:13:46;;;;;;;1.63;0.43;;;18.60;70.10;;;;;;6230352;28;20050;-86
2022/05/26 01:16:58;;;;;;;0.10;0.10;;;18.70;70.00;;;;;;6229971;28;20104;-85
2022/05/26 01:20:28;;;;;;;1.10;0.30;;;18.60;70.20;;;;;;6229125;28;20052;-84
2022/05/26 01:24:07;;;;;;;0.70;0.20;;;18.60;70.00;;;;;;6229722;28;20050;-86
2022/05/26 01:27:24;;;;;;;1.13;0.40;;;18.60;70.10;;;;;;6229700;28;20049;-86
2022/05/26 01:30:29;;;;;;;0.90;0.43;;;18.60;70.10;;;;;;6229194;28;20045;-83
2022/05/26 01:33:44;;;;;;;0.60;0.05;;;18.60;70.10;;;;;;6229126;28;20124;-85
2022/05/26 01:36:54;;;;;;;0.43;0.13;;;18.60;70.40;;;;;;6229603;28;20046;-84
2022/05/26 01:40:05;;;;;;;0.93;0.10;;;18.60;70.50;;;;;;6229502;28;20048;-85
2022/05/26 01:43:14;;;;;;;3.35;0.30;;;18.60;70.60;;;;;;6211483;28;20054;-84
2022/05/26 01:46:21;;;;;;;4.28;0.60;;;18.60;70.90;;;;;;6203061;28;20050;-84
2022/05/26 01:49:31;;;;;;;2.47;0.45;;;18.60;70.90;;;;;;6200740;28;20136;-83
2022/05/26 01:52:36;;;;;;;0.55;0.20;;;18.60;70.80;;;;;;6200933;28;20057;-83
2022/05/26 01:55:46;;;;;;;1.27;0.30;;;18.60;71.00;;;;;;6201203;28;20046;-84
2022/05/26 01:58:53;;;;;;;3.53;0.30;;;18.60;71.00;;;;;;6202133;28;20058;-84
2022/05/26 02:02:00;;;;;;;1.00;0.25;;;18.70;71.20;;;;;;6200522;28;20526;-85
2022/05/26 02:05:10;;;;;;;1.95;0.25;;;18.60;71.30;;;;;;6201297;28;20046;-84
2022/05/26 02:08:16;;;;;;;1.35;0.40;;;18.50;71.60;;;;;;6200248;28;20078;-84
2022/05/26 02:11:20;;;;;;;2.53;0.28;;;18.60;71.90;;;;;;6201314;28;20050;-84
2022/05/26 02:14:29;;;;;;;1.13;0.32;;;18.50;72.10;;;;;;6201553;28;20064;-84
2022/05/26 02:17:32;;;;;;;5.35;0.20;;;18.40;72.30;;;;;;6200252;28;20068;-85
2022/05/26 02:20:41;;;;;;;3.67;0.55;;;18.40;72.70;;;;;;6200456;28;20046;-83
2022/05/26 02:23:49;;;;;;;0.68;0.10;;;18.40;72.70;;;;;;6205968;28;20588;-85
2022/05/26 02:26:51;;;;;;;3.10;0.30;;;18.30;72.80;;;;;;6206332;28;20134;-86
2022/05/26 02:29:53;;;;;;;1.45;0.32;;;18.20;73.10;;;;;;6205341;28;20049;-86
2022/05/26 02:32:55;;;;;;;0.98;0.60;;;18.20;73.50;;;;;;6206485;28;20050;-86
2022/05/26 02:35:59;;;;;;;1.10;0.38;;;18.00;73.50;;;;;;6206397;28;20054;-86
2022/05/26 02:39:01;;;;;;;3.83;0.40;;;18.00;74.10;;;;;;6205083;28;20421;-86
2022/05/26 02:42:04;;;;;;;1.08;0.30;;;17.90;74.30;;;;;;6210860;28;20137;-83
2022/05/26 02:45:07;;;;;;;0.32;0.17;;;17.90;74.60;;;;;;6221373;28;20130;-84
2022/05/26 02:48:18;;;;;;;1.92;0.25;;;17.80;75.00;;;;;;6200228;28;20278;-86
2022/05/26 02:51:27;;;;;;;3.50;0.60;;;17.70;75.40;;;;;;6200394;28;20042;-84
2022/05/26 02:54:42;;;;;;;0.60;0.22;;;17.60;75.80;;;;;;6200675;28;20534;-86
2022/05/26 02:57:57;;;;;;;8.15;0.43;;;17.50;76.00;;;;;;6200088;28;20429;-85
2022/05/26 03:01:05;;;;;;;1.88;0.30;;;17.50;76.50;;;;;;6200656;28;20060;-85
2022/05/26 03:04:14;;;;;;;2.00;0.20;;;17.40;76.70;;;;;;6200539;28;20082;-83
2022/05/26 03:07:23;;;;;;;0.70;0.20;;;17.30;77.30;;;;;;6200883;28;20129;-83
2022/05/26 03:10:26;;;;;;;2.53;0.55;;;17.20;77.60;;;;;;6200926;28;20061;-85
2022/05/26 03:13:28;;;;;;;1.20;0.50;;;17.10;78.00;;;;;;6201296;28;20573;-84
2022/05/26 03:16:30;;;;;;;1.10;0.20;;;16.90;78.50;;;;;;6200909;28;20096;-83
2022/05/26 03:19:32;;;;;;;1.88;0.20;;;17.00;78.90;;;;;;6200591;28;20046;-84
2022/05/26 03:22:35;;;;;;;1.83;0.32;;;16.80;79.10;;;;;;6201479;28;20054;-84
2022/05/26 03:25:37;;;;;;;2.85;0.50;;;16.80;79.60;;;;;;6200572;28;20043;-83
2022/05/26 03:28:39;;;;;;;1.25;0.13;;;16.70;79.70;;;;;;6200738;28;20044;-84
2022/05/26 03:31:41;;;;;;;2.40;0.38;;;16.60;80.10;;;;;;6201087;28;20047;-82
2022/05/26 03:41:23;;;;;;;0.35;0.15;;;16.80;79.90;;;;;;6202354;28;20047;-83
2022/05/26 03:44:28;;;;;;;1.27;0.28;;;16.80;80.00;;;;;;6215479;28;20046;-83
2022/05/26 03:47:30;;;;;;;0.70;0.20;;;16.80;80.10;;;;;;6226681;28;20172;-83
2022/05/26 03:50:33;;;;;;;1.70;0.30;;;16.90;80.30;;;;;;6228488;28;20065;-82
2022/05/26 03:53:37;;;;;;;1.27;0.55;;;17.00;80.20;;;;;;6230871;28;20054;-82
2022/05/26 03:56:39;;;;;;;1.13;0.30;;;17.00;80.00;;;;;;6229283;28;20049;-81
2022/05/26 03:59:41;;;;;;;1.98;0.45;;;17.20;80.00;;;;;;6230784;28;20478;-82
2022/05/26 04:02:43;;;;;;;0.85;0.30;;;17.30;79.90;;;;;;6230880;28;20064;-83
2022/05/26 04:05:44;;;;;;;0.98;0.40;;;17.30;79.70;;;;;;6229652;28;20200;-82
2022/05/26 04:08:48;;;;;;;0.80;0.20;;;17.40;79.70;;;;;;6228872;28;20069;-82
2022/05/26 04:11:50;;;;;;;7.13;0.70;;;17.40;79.70;;;;;;6229780;28;20129;-84
2022/05/26 04:14:51;;;;;;;1.13;0.15;;;17.60;79.80;;;;;;6230226;28;20072;-83
2022/05/26 04:17:54;;;;;;;2.25;0.30;;;17.60;79.50;;;;;;6228592;28;20095;-83
2022/05/26 04:21:05;;;;;;;0.88;0.30;;;17.60;79.20;;;;;;6228666;28;20042;-84
2022/05/26 04:24:08;;;;;;;0.35;0.08;;;17.70;79.20;;;;;;6228676;28;20485;-83
2022/05/26 04:27:10;;;;;;;1.40;0.28;;;17.80;79.10;;;;;;6229051;28;20452;-84
2022/05/26 04:30:13;;;;;;;1.38;0.22;;;17.90;79.10;;;;;;6229610;28;20054;-82
2022/05/26 04:33:15;;;;;;;2.67;0.30;;;17.90;79.10;;;;;;6229386;28;20251;-83
2022/05/26 04:36:17;;;;;;;1.58;0.38;;;18.00;78.80;;;;;;6229420;28;20125;-84
2022/05/26 04:39:20;;;;;;;2.17;1.00;;;18.10;78.60;;;;;;6230063;28;20101;-83
2022/05/26 04:42:23;;;;;;;0.57;0.32;;;18.10;78.70;;;;;;6229756;28;20046;-83
2022/05/26 04:45:25;;;;;;;0.65;0.47;;;18.20;78.50;;;;;;6216534;28;20046;-84
2022/05/26 04:48:27;;;;;;;4.53;0.55;;;18.40;78.20;;;;;;6204221;28;20054;-83
2022/05/26 04:51:28;;;;;;;0.52;0.20;;;18.60;77.70;;;;;;6205372;28;20060;-83
2022/05/26 04:54:32;;;;;;;3.85;0.40;;;18.80;77.40;;;;;;6205137;28;20141;-83
2022/05/26 04:57:34;;;;;;;1.00;0.40;;;19.00;76.70;;;;;;6204511;28;20046;-83
2022/05/26 05:00:36;;;;;;;1.98;0.30;;;19.20;76.20;;;;;;6204498;28;20597;-83
2022/05/26 05:03:38;;;;;;;1.05;0.40;;;19.50;75.40;;;;;;6204139;28;20057;-83
2022/05/26 05:06:39;;;;;;;3.05;0.40;;;19.70;74.30;;;;;;6205720;28;20054;-84
2022/05/26 05:09:43;;;;;;;2.40;0.50;;;20.10;73.20;;;;;;6204642;28;20121;-83
2022/05/26 05:12:45;;;;;;;0.85;0.47;;;20.10;72.90;;;;;;6204151;28;20770;-82
2022/05/26 05:15:54;;;;;;;0.03;0.00;;;20.30;73.10;;;;;;6204672;28;20046;-84
2022/05/26 05:18:56;;;;;;;3.25;0.60;;;20.50;72.40;;;;;;6205774;28;20136;-83
2022/05/26 05:22:01;;;;;;;1.33;0.50;;;21.20;70.10;;;;;;6205989;28;20046;-84
2022/05/26 05:25:08;;;;;;;1.17;0.30;;;21.30;69.00;;;;;;6207469;28;20074;-84
2022/05/26 05:28:13;;;;;;;0.80;0.30;;;20.90;69.10;;;;;;6206110;28;20050;-85
2022/05/26 05:31:19;;;;;;;1.58;0.30;;;20.60;70.10;;;;;;6205627;28;20050;-84
2022/05/26 05:34:26;;;;;;;1.65;0.55;;;20.50;70.80;;;;;;6204676;28;20050;-84
2022/05/26 05:37:30;;;;;;;0.45;0.25;;;20.40;71.30;;;;;;6204706;28;20051;-84
2022/05/26 05:40:33;;;;;;;1.95;0.45;;;20.20;71.40;;;;;;6204663;28;20061;-84
2022/05/26 05:43:36;;;;;;;1.05;0.30;;;20.00;72.00;;;;;;6204444;28;20541;-84
2022/05/26 05:49:54;;;;;;;1.77;1.02;;;27.10;56.40;;;;;;6204931;28;20061;-84
2022/05/26 05:52:55;;;;;;;3.40;0.40;;;31.00;44.40;;;;;;6204622;28;20043;-83
2022/05/26 05:55:59;;;;;;;2.42;0.47;;;31.80;39.70;;;;;;6206234;28;20057;-83
2022/05/26 05:59:00;;;;;;;3.20;0.47;;;29.50;42.10;;;;;;6206091;28;20060;-83
2022/05/26 06:02:02;;;;;;;1.15;0.60;;;27.50;45.50;;;;;;6205177;28;20050;-84
2022/05/26 06:05:05;;;;;;;0.50;0.20;;;26.50;49.00;;;;;;6204854;28;20046;-84
2022/05/26 06:08:11;;;;;;;0.80;0.20;;;26.40;48.80;;;;;;6206636;28;20662;-84
2022/05/26 06:11:14;;;;;;;0.50;0.28;;;26.10;49.30;;;;;;6207376;28;20054;-84
2022/05/26 06:14:17;;;;;;;2.10;0.47;;;25.60;50.00;;;;;;6207934;28;20054;-84
2022/05/26 06:17:19;;;;;;;0.75;0.52;;;25.10;51.30;;;;;;6207856;28;20044;-83
2022/05/26 06:20:21;;;;;;;0.45;0.20;;;24.80;52.40;;;;;;6206630;28;20054;-83
2022/05/26 06:23:23;;;;;;;3.53;0.47;;;24.40;53.00;;;;;;6215139;28;20046;-83
2022/05/26 06:26:26;;;;;;;1.73;0.77;;;24.00;53.90;;;;;;6204793;28;20049;-83
2022/05/26 06:39:33;;;;;;;1.25;0.45;;;22.20;58.60;;;;;;6199437;28;20046;-83
2022/05/26 06:42:36;;;;;;;1.58;0.22;;;21.90;60.10;;;;;;6209287;28;20050;-83
2022/05/26 06:45:39;;;;;;;5.60;0.38;;;21.80;60.70;;;;;;6197292;28;20146;-84
2022/05/26 06:48:41;;;;;;;6.32;0.80;;;21.90;61.00;;;;;;6180218;28;20433;-84
2022/05/26 06:51:43;;;;;;;0.65;0.30;;;22.00;60.90;;;;;;6180975;28;20054;-84
2022/05/26 06:54:46;;;;;;;1.15;0.40;;;22.00;61.60;;;;;;6180870;28;20062;-84
2022/05/26 06:57:49;;;;;;;1.83;0.35;;;21.90;62.00;;;;;;6181529;28;20506;-83
2022/05/26 07:00:52;;;;;;;2.10;0.35;;;21.90;62.60;;;;;;6181044;28;20046;-84
2022/05/26 07:03:53;;;;;;;1.08;0.30;;;21.80;62.40;;;;;;6185340;28;20066;-84
2022/05/26 07:06:56;;;;;;;1.73;1.23;;;21.70;63.30;;;;;;6185270;28;20057;-84
2022/05/26 07:09:58;;;;;;;2.92;0.35;;;21.60;64.30;;;;;;6183364;28;20118;-84
2022/05/26 07:13:01;;;;;;;0.95;0.30;;;21.50;62.70;;;;;;6183283;28;20051;-83
2022/05/26 07:16:03;;;;;;;2.38;0.50;;;21.40;63.00;;;;;;6183307;28;20062;-82
2022/05/26 07:19:11;;;;;;;1.83;0.40;;;21.30;63.10;;;;;;6181546;28;20504;-83
2022/05/26 07:22:13;;;;;;;2.65;0.32;;;21.20;63.90;;;;;;6181745;28;20138;-83
2022/05/26 07:25:15;;;;;;;1.17;0.40;;;21.30;64.30;;;;;;6182901;28;20050;-83
2022/05/26 07:28:18;;;;;;;0.70;0.30;;;21.40;64.10;;;;;;6184026;28;20049;-83
2022/05/26 07:31:20;;;;;;;2.15;0.40;;;21.60;63.90;;;;;;6186069;28;20042;-83
2022/05/26 07:34:23;;;;;;;2.13;0.30;;;21.70;63.00;;;;;;6187194;28;20093;-84
2022/05/26 07:44:05;;;;;;;0.82;0.30;;;21.40;63.80;;;;;;6180593;28;20066;-84
2022/05/26 07:47:09;;;;;;;1.17;0.35;;;21.40;64.10;;;;;;6178786;28;20517;-83
2022/05/26 07:50:19;;;;;;;2.75;0.38;;;21.50;64.20;;;;;;6177749;28;20058;-84
2022/05/26 07:53:21;;;;;;;0.98;0.38;;;21.60;63.80;;;;;;6179702;28;20047;-85
2022/05/26 07:56:23;;;;;;;2.20;0.38;;;21.60;63.50;;;;;;6184672;28;20043;-85
2022/05/26 07:59:26;;;;;;;0.65;0.40;;;21.60;63.70;;;;;;6187350;28;20049;-85
2022/05/26 08:02:28;;;;;;;0.98;0.28;;;21.50;63.60;;;;;;6167059;28;20115;-84
2022/05/26 08:05:30;;;;;;;0.60;0.30;;;21.60;64.20;;;;;;6162960;28;20049;-84
2022/05/26 08:08:33;;;;;;;2.42;0.30;;;21.70;64.00;;;;;;6169779;28;20047;-83
2022/05/26 08:11:34;;;;;;;1.73;0.20;;;21.70;64.30;;;;;;6180699;28;20789;-87
2022/05/26 08:17:43;;;;;;;6.50;0.45;;;21.60;65.40;;;;;;6266481;23;20048;-80
2022/05/26 08:20:46;;;;;;;3.72;0.63;;;21.70;64.80;;;;;;6259635;28;20045;-83
2022/05/26 08:23:48;;;;;;;2.05;0.50;;;21.80;65.20;;;;;;6253563;28;20049;-85
2022/05/26 08:26:50;;;;;;;2.85;0.80;;;22.00;64.40;;;;;;6257483;28;20053;-84
2022/05/26 08:29:54;;;;;;;0.88;0.40;;;22.10;64.00;;;;;;6262446;28;20084;-84
2022/05/26 09:21:11;;;;;;;7.80;0.75;;;23.30;59.90;;;;;;6103761;29;20047;-84
2022/05/26 09:39:39;;;;;;;4.80;0.40;;;22.80;61.20;;;;;;6082019;29;20147;-84
2022/05/26 09:42:51;;;;;;;4.75;0.60;;;22.80;61.60;;;;;;6094417;29;20340;-81
2022/05/26 10:13:40;;;;;;;2.45;0.22;;;23.10;60.80;;;;;;6256632;28;20069;-85
2022/05/26 10:17:08;;;;;;;4.95;0.50;;;22.80;61.40;;;;;;6252779;28;20045;-85
2022/05/26 11:00:27;;;;;;;4.15;0.40;;;25.10;57.10;;;;;;6216364;28;20049;-84
2022/05/26 11:03:35;;;;;;;3.40;0.47;;;25.60;55.30;;;;;;6227485;28;20056;-85
2022/05/26 11:06:41;;;;;;;2.08;0.38;;;26.10;55.40;;;;;;6228110;28;20042;-84
2022/05/26 11:26:01;;;;;;;2.72;0.60;;;27.90;49.20;;;;;;6061929;29;20302;-86
2022/05/26 11:48:46;;;;;;;2.17;0.40;;;27.10;48.30;;;;;;6011085;29;20041;-84
2022/05/26 11:52:12;;;;;;;3.50;0.40;;;26.40;50.30;;;;;;6182676;28;20051;-85
2022/05/26 11:55:42;;;;;;;2.35;0.60;;;26.10;51.20;;;;;;6239874;23;20055;-83
2022/05/26 11:58:51;;;;;;;1.00;0.45;;;26.00;51.60;;;;;;6210858;28;20049;-83
2022/05/26 13:02:50;;;;;;;2.50;0.55;;;26.70;46.60;;;;;;6233000;28;20026;-82
2022/05/26 13:05:59;;;;;;;1.25;0.35;;;26.60;46.70;;;;;;6217083;28;20128;-84
2022/05/26 13:09:18;;;;;;;4.20;1.52;;;26.50;46.70;;;;;;6243549;28;20041;-82
2022/05/26 13:12:25;;;;;;;27.50;11.07;;;26.20;47.00;;;;;;6236632;28;20042;-86
2022/05/26 13:18:48;;;;;;;42.78;22.13;;;26.20;47.50;;;;;;6206617;28;20050;-84
2022/05/26 13:21:56;;;;;;;78.45;41.80;;;26.20;47.70;;;;;;6213719;28;20050;-83
2022/05/26 13:25:27;;;;;;;26.38;14.52;;;26.50;47.80;;;;;;6213080;28;20069;-85
2022/05/26 13:28:58;;;;;;;64.50;34.05;;;26.80;47.10;;;;;;6213025;28;20582;-81
2022/05/26 13:35:40;;;;;;;75.88;38.90;;;26.50;46.50;;;;;;6153782;29;20081;-81
2022/05/26 13:38:46;;;;;;;64.07;31.52;;;26.60;46.90;;;;;;6156736;29;20459;-82
2022/05/26 13:41:51;;;;;;;59.95;27.05;;;26.80;45.80;;;;;;6219507;28;20081;-83
2022/05/26 13:44:53;;;;;;;71.18;31.95;;;26.90;45.20;;;;;;6237619;28;20041;-84
2022/05/26 13:48:42;;;;;;;2.30;0.88;;;27.00;44.90;;;;;;6229401;28;20056;-84
2022/05/26 13:51:48;;;;;;;8.30;3.92;;;27.00;44.10;;;;;;6224591;28;20045;-82
2022/05/26 13:54:54;;;;;;;4.25;0.60;;;26.80;45.90;;;;;;6226034;28;20042;-82
2022/05/26 13:57:59;;;;;;;1.35;0.30;;;26.80;45.50;;;;;;6216828;28;20057;-83
2022/05/26 14:01:04;;;;;;;2.83;1.02;;;26.90;46.10;;;;;;6214163;28;20046;-82
2022/05/26 14:04:05;;;;;;;6.43;2.38;;;27.10;45.70;;;;;;6232045;28;20065;-82
2022/05/26 14:07:37;;;;;;;3.47;2.72;;;27.20;45.00;;;;;;6242190;28;20599;-83
2022/05/26 14:10:44;;;;;;;2.33;1.00;;;27.40;44.70;;;;;;6181600;28;20052;-82
2022/05/26 14:13:46;;;;;;;1.90;1.17;;;27.60;45.20;;;;;;6225992;28;20114;-83
2022/05/26 14:16:54;;;;;;;1.70;0.57;;;27.80;44.10;;;;;;6242369;28;20056;-83
2022/05/26 14:19:57;;;;;;;;;;;27.90;43.80;;;;;;6231838;28;20050;-84
2022/05/26 14:23:02;;;;;;;1.23;0.30;;;27.90;43.70;;;;;;6229407;28;19928;-82
2022/05/26 14:26:07;;;;;;;1.90;0.65;;;27.80;42.20;;;;;;6235346;28;20065;-85
2022/05/26 14:29:40;;;;;;;1.60;0.82;;;27.70;43.50;;;;;;6227638;28;20115;-84
2022/05/26 14:32:45;;;;;;;1.38;0.20;;;27.70;42.80;;;;;;6239022;28;20559;-84
2022/05/26 14:35:48;;;;;;;0.88;0.47;;;27.60;43.30;;;;;;6230149;28;20509;-84
2022/05/26 14:38:51;;;;;;;0.88;0.40;;;27.60;43.40;;;;;;6229917;28;20132;-84
2022/05/26 14:46:04;;;;;;;1.40;0.30;;;28.00;42.20;;;;;;6213163;28;20548;-83
2022/05/26 14:49:07;;;;;;;0.55;0.20;;;27.90;42.10;;;;;;6229286;28;20066;-83
2022/05/26 14:52:11;;;;;;;1.10;0.32;;;27.80;41.80;;;;;;6202593;28;20433;-82
2022/05/26 14:55:29;;;;;;;1.48;0.22;;;27.80;41.50;;;;;;6216259;28;20489;-83
2022/05/26 14:58:31;;;;;;;0.50;0.17;;;27.70;41.40;;;;;;6216633;28;20046;-82
2022/05/26 15:01:34;;;;;;;4.28;0.30;;;27.70;41.80;;;;;;6214666;28;20050;-83
2022/05/26 15:04:42;;;;;;;1.58;0.20;;;27.70;42.30;;;;;;6233083;28;20053;-83
2022/05/26 15:07:46;;;;;;;1.48;0.38;;;27.70;42.10;;;;;;6233953;28;20052;-83
2022/05/26 15:10:50;;;;;;;1.73;0.32;;;27.80;41.80;;;;;;6238129;28;20050;-83
2022/05/26 15:13:52;;;;;;;0.30;0.20;;;27.80;41.70;;;;;;6229293;28;20053;-82
2022/05/26 15:16:58;;;;;;;1.35;0.30;;;27.90;41.90;;;;;;6240371;28;20056;-82
2022/05/26 15:20:02;;;;;;;1.27;0.45;;;27.80;41.20;;;;;;6227747;28;20054;-80
2022/05/26 15:58:17;;;;;;;3.10;0.82;;;27.20;40.40;;;;;;5940681;29;20062;-82
2022/05/26 16:24:24;;;;;;;1.80;0.40;;;26.00;42.60;;;;;;6112156;29;20090;-83
2022/05/26 16:31:32;;;;;;;1.98;0.20;;;25.90;43.20;;;;;;6078952;29;20056;-83
2022/05/26 16:36:40;;;;;;;1.83;0.22;;;25.90;43.50;;;;;;6080604;29;20064;-83
2022/05/26 16:38:15;;;;;;;1.48;0.30;;;25.90;43.30;;;;;;6110521;29;20048;-82
2022/05/26 16:41:25;;;;;;;1.70;0.70;;;25.90;43.40;;;;;;6121917;28;20048;-82
2022/05/26 16:44:42;;;;;;;;;;;;;;;;;;;;;
2022/05/26 16:48:21;;;;;;;3.50;0.40;;;25.90;43.60;;;;;;6238158;28;20515;-83
2022/05/26 16:51:23;;;;;;;;;;;25.90;44.00;;;;;;6255318;28;20084;-83
2022/05/26 16:54:27;;;;;;;2.45;0.50;;;25.90;44.80;;;;;;6261939;28;19924;-83
2022/05/26 16:57:30;;;;;;;1.42;0.45;;;25.70;43.60;;;;;;6260812;28;20069;-82
2022/05/26 17:04:44;;;;;;;3.20;0.40;;;25.20;44.90;;;;;;6090803;29;20060;-83
2022/05/26 17:07:50;;;;;;;1.75;0.20;;;25.00;45.20;;;;;;6169683;28;20057;-82
2022/05/26 17:11:21;;;;;;;2.20;0.40;;;24.80;45.80;;;;;;6241634;28;20050;-83
2022/05/26 17:22:20;;;;;;;0.88;0.30;;;24.10;47.70;;;;;;6194370;28;20050;-84
2022/05/26 17:25:37;;;;;;;3.85;0.70;;;23.90;48.30;;;;;;6206293;28;20377;-83
2022/05/26 20:10:56;;;;;;;2.10;0.50;;;17.60;83.10;;;;;;6590460;23;20145;-86
2022/05/26 21:17:37;;;;;;;0.73;0.40;;;17.20;86.90;;;;;;6114587;29;20077;-83
2022/05/26 21:20:39;;;;;;;2.85;0.70;;;17.30;87.00;;;;;;6138000;28;20054;-83
2022/05/26 21:23:41;;;;;;;4.30;0.70;;;17.30;86.90;;;;;;6204571;28;20052;-83
2022/05/26 21:26:45;;;;;;;1.52;0.50;;;17.30;86.80;;;;;;6204636;28;20692;-83
2022/05/26 21:29:48;;;;;;;1.52;0.50;;;17.40;86.40;;;;;;6204749;28;20057;-83
2022/05/26 21:32:51;;;;;;;1.33;0.50;;;17.40;86.20;;;;;;6197405;28;20058;-83
2022/05/26 21:35:53;;;;;;;3.58;0.63;;;17.50;86.10;;;;;;6206307;28;20073;-83
2022/05/26 21:38:55;;;;;;;2.85;0.70;;;17.60;86.10;;;;;;6205109;28;20046;-84
2022/05/26 21:41:58;;;;;;;1.10;0.60;;;17.60;86.30;;;;;;6205935;28;20132;-83
2022/05/26 21:45:00;;;;;;;4.43;0.80;;;17.60;86.00;;;;;;6188424;28;20050;-83
2022/05/26 21:48:03;;;;;;;2.17;0.55;;;17.60;86.10;;;;;;6205621;28;20112;-85
2022/05/26 21:51:10;;;;;;;1.63;0.50;;;17.60;86.20;;;;;;6204663;28;20131;-83
2022/05/26 21:54:14;;;;;;;4.22;0.65;;;17.60;86.50;;;;;;6205754;28;20049;-84
2022/05/26 21:57:17;;;;;;;3.83;0.50;;;17.60;86.80;;;;;;6207188;28;20077;-84
2022/05/26 22:00:24;;;;;;;2.60;0.50;;;17.50;87.20;;;;;;6205625;28;20053;-86
2022/05/26 22:03:28;;;;;;;3.28;0.60;;;17.50;87.30;;;;;;6203742;28;20438;-83
2022/05/26 22:13:12;;;;;;;3.33;1.05;;;17.50;87.80;;;;;;6197106;28;20126;-84
2022/05/26 22:16:15;;;;;;;2.17;0.82;;;17.50;88.20;;;;;;6205924;28;20082;-85
2022/05/26 22:19:20;;;;;;;1.17;0.50;;;17.50;88.20;;;;;;6206066;28;20046;-84
2022/05/26 22:22:25;;;;;;;1.70;0.70;;;17.50;88.30;;;;;;6205832;28;20065;-86
2022/05/26 22:25:27;;;;;;;3.13;0.77;;;17.50;88.40;;;;;;6207306;28;20534;-84
2022/05/26 22:28:29;;;;;;;1.35;0.60;;;17.50;88.00;;;;;;6213175;28;20054;-86
2022/05/26 22:31:31;;;;;;;3.67;0.50;;;17.50;88.20;;;;;;6210032;28;20593;-84
2022/05/26 22:37:57;;;;;;;1.50;0.60;;;17.50;88.30;;;;;;6195104;28;20058;-86
2022/05/26 22:40:58;;;;;;;1.95;0.50;;;17.50;88.30;;;;;;6208247;28;20051;-86
2022/05/26 22:44:00;;;;;;;3.85;0.50;;;17.50;88.10;;;;;;6202812;28;20051;-85
2022/05/26 22:47:02;;;;;;;6.35;0.73;;;17.50;88.10;;;;;;6207315;28;20052;-86
2022/05/26 22:50:06;;;;;;;1.35;0.40;;;17.50;88.20;;;;;;6201466;28;20176;-86
2022/05/26 22:53:10;;;;;;;2.70;0.70;;;17.50;88.20;;;;;;6202035;28;20129;-85
2022/05/26 22:56:12;;;;;;;3.75;0.80;;;17.40;88.30;;;;;;6199849;28;20125;-83
2022/05/26 22:59:14;;;;;;;2.15;0.55;;;17.50;88.60;;;;;;6202127;28;20053;-85
2022/05/26 23:02:16;;;;;;;6.13;0.95;;;17.40;88.60;;;;;;6200602;28;20601;-86
2022/05/26 23:05:20;;;;;;;5.10;0.40;;;17.30;88.90;;;;;;6174551;28;20046;-85
2022/05/26 23:08:22;;;;;;;1.75;0.77;;;17.20;89.20;;;;;;6178401;28;20078;-85
2022/05/26 23:11:28;;;;;;;3.03;0.60;;;17.20;89.50;;;;;;6177081;28;20107;-84
2022/05/26 23:14:30;;;;;;;2.88;0.75;;;17.10;89.80;;;;;;6123380;28;20055;-83
2022/05/26 23:17:32;;;;;;;2.28;0.47;;;17.00;90.00;;;;;;6176195;28;20182;-83
2022/05/26 23:20:36;;;;;;;0.88;0.50;;;17.00;90.00;;;;;;6177016;28;20047;-84
2022/05/26 23:23:38;;;;;;;1.73;0.80;;;17.00;90.10;;;;;;6178366;28;20077;-84
2022/05/26 23:26:39;;;;;;;5.55;0.63;;;17.00;90.20;;;;;;6178529;28;20057;-82
2022/05/26 23:29:41;;;;;;;2.50;0.57;;;16.90;90.30;;;;;;6178945;28;20106;-84
2022/05/26 23:32:43;;;;;;;1.05;0.70;;;16.90;90.40;;;;;;6178528;28;20074;-84
2022/05/26 23:35:46;;;;;;;4.07;0.52;;;16.80;90.60;;;;;;6179329;28;20056;-85
2022/05/26 23:38:48;;;;;;;2.67;0.82;;;16.70;90.70;;;;;;6177623;28;20125;-84
2022/05/26 23:45:10;;;;;;;4.05;0.80;;;16.60;91.00;;;;;;6178551;28;20043;-84
2022/05/26 23:48:11;;;;;;;3.13;0.82;;;16.50;91.20;;;;;;6178013;28;20130;-84
2022/05/26 23:51:16;;;;;;;8.15;0.95;;;16.50;91.30;;;;;;6177788;28;20564;-85
2022/05/26 23:54:18;;;;;;;2.90;0.70;;;16.40;91.50;;;;;;6178874;28;20053;-86
